sensor_id;sensor_type;location;lat;lon;timestamp;pressure;altitude;pressure_sealevel;temperature;humidity
8717;BME280;4395;48.554;8.820;2023-04-05T00:01:18;96229.38;;;0.19;89.49
8717;BME280;4395;48.554;8.820;2023-04-05T00:03:21;96321.28;;;0.84;89.62
8717;BME280;4395;48.554;8.820;2023-04-05T00:05:24;96324.28;;;0.81;89.63
8717;BME280;4395;48.554;8.820;2023-04-05T00:07:30;96294.72;;;0.78;89.42
8717;BME280;4395;48.554;8.820;2023-04-05T00:09:34;96330.97;;;1.07;89.48
8717;BME280;4395;48.554;8.820;2023-04-05T00:11:37;96332.69;;;1.00;88.98
8717;BME280;4395;48.554;8.820;2023-04-05T00:13:40;96327.59;;;0.83;88.46
8717;BME280;4395;48.554;8.820;2023-04-05T00:15:44;96320.00;;;0.95;89.75
8717;BME280;4395;48.554;8.820;2023-04-05T00:17:47;96310.97;;;1.04;88.38
8717;BME280;4395;48.554;8.820;2023-04-05T00:19:50;96322.03;;;0.93;87.07
8717;BME280;4395;48.554;8.820;2023-04-05T00:21:57;96311.88;;;0.67;87.67
8717;BME280;4395;48.554;8.820;2023-04-05T00:24:00;96306.94;;;0.64;88.68
8717;BME280;4395;48.554;8.820;2023-04-05T00:26:04;96310.31;;;0.73;88.65
8717;BME280;4395;48.554;8.820;2023-04-05T00:28:06;96301.47;;;0.80;87.88
8717;BME280;4395;48.554;8.820;2023-04-05T00:30:10;96297.38;;;0.92;87.68
8717;BME280;4395;48.554;8.820;2023-04-05T00:32:14;96252.31;;;0.71;87.71
8717;BME280;4395;48.554;8.820;2023-04-05T00:34:17;96303.50;;;1.08;86.90
8717;BME280;4395;48.554;8.820;2023-04-05T00:36:21;96305.97;;;1.09;87.24
8717;BME280;4395;48.554;8.820;2023-04-05T00:38:24;96287.25;;;1.11;86.73
8717;BME280;4395;48.554;8.820;2023-04-05T00:40:27;96299.84;;;1.09;86.21
8717;BME280;4395;48.554;8.820;2023-04-05T00:42:30;96293.00;;;1.00;86.23
8717;BME280;4395;48.554;8.820;2023-04-05T00:44:32;96281.88;;;1.04;87.04
8717;BME280;4395;48.554;8.820;2023-04-05T00:46:35;96298.56;;;1.05;87.08
8717;BME280;4395;48.554;8.820;2023-04-05T00:48:40;96301.47;;;1.10;86.40
8717;BME280;4395;48.554;8.820;2023-04-05T00:50:43;96297.75;;;1.04;84.73
8717;BME280;4395;48.554;8.820;2023-04-05T00:52:47;96295.28;;;1.03;85.47
8717;BME280;4395;48.554;8.820;2023-04-05T00:54:51;96198.75;;;0.40;83.97
8717;BME280;4395;48.554;8.820;2023-04-05T00:56:54;96304.97;;;0.95;84.80
8717;BME280;4395;48.554;8.820;2023-04-05T00:58:57;96240.53;;;0.59;83.72
8717;BME280;4395;48.554;8.820;2023-04-05T01:01:03;96281.59;;;0.84;84.68
8717;BME280;4395;48.554;8.820;2023-04-05T01:03:09;96092.13;;;-0.35;84.15
8717;BME280;4395;48.554;8.820;2023-04-05T01:05:24;96285.44;;;0.82;85.41
8717;BME280;4395;48.554;8.820;2023-04-05T01:07:38;96216.19;;;0.49;85.17
8717;BME280;4395;48.554;8.820;2023-04-05T01:09:46;96230.31;;;0.56;85.74
8717;BME280;4395;48.554;8.820;2023-04-05T01:11:51;96268.44;;;0.91;85.90
8717;BME280;4395;48.554;8.820;2023-04-05T01:13:57;96261.06;;;1.01;86.36
8717;BME280;4395;48.554;8.820;2023-04-05T01:16:01;96260.31;;;1.07;86.58
8717;BME280;4395;48.554;8.820;2023-04-05T01:18:04;96260.03;;;1.17;87.07
8717;BME280;4395;48.554;8.820;2023-04-05T01:20:08;96258.50;;;1.08;86.23
8717;BME280;4395;48.554;8.820;2023-04-05T01:22:35;96229.22;;;0.94;85.77
8717;BME280;4395;48.554;8.820;2023-04-05T01:25:08;96240.16;;;0.91;86.74
8717;BME280;4395;48.554;8.820;2023-04-05T01:27:24;96253.94;;;1.02;85.69
8717;BME280;4395;48.554;8.820;2023-04-05T01:29:44;96245.25;;;1.08;86.21
8717;BME280;4395;48.554;8.820;2023-04-05T01:31:50;96235.03;;;1.05;87.36
8717;BME280;4395;48.554;8.820;2023-04-05T01:34:01;96248.09;;;1.06;86.39
8717;BME280;4395;48.554;8.820;2023-04-05T01:36:11;96238.78;;;1.10;85.80
8717;BME280;4395;48.554;8.820;2023-04-05T01:38:17;96249.91;;;1.06;85.06
8717;BME280;4395;48.554;8.820;2023-04-05T01:40:22;96077.47;;;-0.22;83.76
8717;BME280;4395;48.554;8.820;2023-04-05T01:42:25;96254.94;;;0.71;86.13
8717;BME280;4395;48.554;8.820;2023-04-05T01:44:28;96239.06;;;0.71;87.02
8717;BME280;4395;48.554;8.820;2023-04-05T01:46:33;96191.00;;;0.53;86.57
8717;BME280;4395;48.554;8.820;2023-04-05T01:48:37;96241.91;;;0.70;86.85
8717;BME280;4395;48.554;8.820;2023-04-05T01:50:40;96243.09;;;0.67;87.34
8717;BME280;4395;48.554;8.820;2023-04-05T01:52:43;96263.44;;;0.67;86.44
8717;BME280;4395;48.554;8.820;2023-04-05T01:54:46;96243.34;;;0.57;88.63
8717;BME280;4395;48.554;8.820;2023-04-05T01:56:49;96241.97;;;0.47;88.47
8717;BME280;4395;48.554;8.820;2023-04-05T01:58:52;96225.31;;;0.61;88.87
8717;BME280;4395;48.554;8.820;2023-04-05T02:00:55;96231.97;;;0.57;87.98
8717;BME280;4395;48.554;8.820;2023-04-05T02:03:00;96235.88;;;0.61;88.05
8717;BME280;4395;48.554;8.820;2023-04-05T02:05:04;96250.47;;;0.57;87.07
8717;BME280;4395;48.554;8.820;2023-04-05T02:07:07;96231.03;;;0.50;87.47
8717;BME280;4395;48.554;8.820;2023-04-05T02:09:10;96231.41;;;0.47;87.84
8717;BME280;4395;48.554;8.820;2023-04-05T02:11:13;96231.88;;;0.50;88.88
8717;BME280;4395;48.554;8.820;2023-04-05T02:13:15;96230.41;;;0.48;87.61
8717;BME280;4395;48.554;8.820;2023-04-05T02:15:18;96235.06;;;0.60;88.83
8717;BME280;4395;48.554;8.820;2023-04-05T02:17:21;96213.72;;;0.62;87.55
8717;BME280;4395;48.554;8.820;2023-04-05T02:19:25;96212.34;;;0.66;86.96
8717;BME280;4395;48.554;8.820;2023-04-05T02:21:30;96219.91;;;0.54;85.61
8717;BME280;4395;48.554;8.820;2023-04-05T02:23:33;96210.44;;;0.45;88.74
8717;BME280;4395;48.554;8.820;2023-04-05T02:25:36;96223.75;;;0.37;89.54
8717;BME280;4395;48.554;8.820;2023-04-05T02:27:39;96200.66;;;0.31;88.34
8717;BME280;4395;48.554;8.820;2023-04-05T02:29:42;96218.91;;;0.55;89.52
8717;BME280;4395;48.554;8.820;2023-04-05T02:31:45;96214.72;;;0.46;89.30
8717;BME280;4395;48.554;8.820;2023-04-05T02:33:48;96211.72;;;0.49;89.61
8717;BME280;4395;48.554;8.820;2023-04-05T02:35:52;96199.75;;;0.53;89.27
8717;BME280;4395;48.554;8.820;2023-04-05T02:37:55;96197.47;;;0.50;88.57
8717;BME280;4395;48.554;8.820;2023-04-05T02:39:58;96205.97;;;0.46;89.24
8717;BME280;4395;48.554;8.820;2023-04-05T02:42:01;96206.06;;;0.38;88.48
8717;BME280;4395;48.554;8.820;2023-04-05T02:44:04;96204.69;;;0.27;90.10
8717;BME280;4395;48.554;8.820;2023-04-05T02:46:07;96194.91;;;0.27;89.56
8717;BME280;4395;48.554;8.820;2023-04-05T02:48:13;96200.00;;;0.14;89.60
8717;BME280;4395;48.554;8.820;2023-04-05T02:50:16;96200.28;;;0.19;90.79
8717;BME280;4395;48.554;8.820;2023-04-05T02:52:22;96213.16;;;0.22;91.75
8717;BME280;4395;48.554;8.820;2023-04-05T02:54:25;96217.44;;;0.23;91.26
8717;BME280;4395;48.554;8.820;2023-04-05T02:56:33;96212.88;;;0.17;87.97
8717;BME280;4395;48.554;8.820;2023-04-05T02:58:38;96172.50;;;-0.14;89.76
8717;BME280;4395;48.554;8.820;2023-04-05T03:00:44;96211.47;;;0.07;89.83
8717;BME280;4395;48.554;8.820;2023-04-05T03:02:47;96196.56;;;-0.09;90.33
8717;BME280;4395;48.554;8.820;2023-04-05T03:04:51;96207.91;;;-0.23;91.44
8717;BME280;4395;48.554;8.820;2023-04-05T03:06:55;96208.28;;;-0.26;92.38
8717;BME280;4395;48.554;8.820;2023-04-05T03:09:01;96213.31;;;-0.40;92.44
8717;BME280;4395;48.554;8.820;2023-04-05T03:11:05;96208.28;;;-0.49;93.79
8717;BME280;4395;48.554;8.820;2023-04-05T03:13:08;96165.41;;;-0.74;95.08
8717;BME280;4395;48.554;8.820;2023-04-05T03:15:11;96206.41;;;-0.41;95.46
8717;BME280;4395;48.554;8.820;2023-04-05T03:17:17;96216.16;;;-0.41;93.23
8717;BME280;4395;48.554;8.820;2023-04-05T03:19:30;96208.91;;;-0.70;95.97
8717;BME280;4395;48.554;8.820;2023-04-05T03:21:43;96201.63;;;-0.91;98.97
8717;BME280;4395;48.554;8.820;2023-04-05T03:24:10;96198.47;;;-0.86;98.14
8717;BME280;4395;48.554;8.820;2023-04-05T03:26:15;96192.84;;;-0.83;97.86
8717;BME280;4395;48.554;8.820;2023-04-05T03:28:23;96200.28;;;-0.87;100.00
8717;BME280;4395;48.554;8.820;2023-04-05T03:30:30;96171.31;;;-0.95;96.80
8717;BME280;4395;48.554;8.820;2023-04-05T03:32:43;96199.59;;;-0.81;98.29
8717;BME280;4395;48.554;8.820;2023-04-05T03:34:57;96200.97;;;-0.93;98.69
8717;BME280;4395;48.554;8.820;2023-04-05T03:37:00;96187.81;;;-1.01;100.00
8717;BME280;4395;48.554;8.820;2023-04-05T03:39:13;96199.31;;;-0.94;99.09
8717;BME280;4395;48.554;8.820;2023-04-05T03:41:17;96185.50;;;-0.96;98.59
8717;BME280;4395;48.554;8.820;2023-04-05T03:43:20;96201.44;;;-0.89;99.66
8717;BME280;4395;48.554;8.820;2023-04-05T03:45:23;96195.69;;;-0.93;100.00
8717;BME280;4395;48.554;8.820;2023-04-05T03:47:27;96198.94;;;-0.83;98.46
8717;BME280;4395;48.554;8.820;2023-04-05T03:49:33;96196.06;;;-0.73;97.41
8717;BME280;4395;48.554;8.820;2023-04-05T03:51:36;96198.06;;;-0.75;99.73
8717;BME280;4395;48.554;8.820;2023-04-05T03:53:39;96180.47;;;-0.83;99.39
8717;BME280;4395;48.554;8.820;2023-04-05T03:55:43;96185.69;;;-0.75;99.08
8717;BME280;4395;48.554;8.820;2023-04-05T03:57:52;96193.47;;;-0.81;98.52
8717;BME280;4395;48.554;8.820;2023-04-05T04:00:06;96188.31;;;-0.75;99.72
8717;BME280;4395;48.554;8.820;2023-04-05T04:02:18;96190.16;;;-0.75;99.67
8717;BME280;4395;48.554;8.820;2023-04-05T04:04:21;96040.38;;;-1.73;99.91
8717;BME280;4395;48.554;8.820;2023-04-05T04:06:23;96198.28;;;-0.85;99.76
8717;BME280;4395;48.554;8.820;2023-04-05T04:08:28;96198.50;;;-0.94;100.00
8717;BME280;4395;48.554;8.820;2023-04-05T04:10:33;96192.31;;;-0.79;99.88
8717;BME280;4395;48.554;8.820;2023-04-05T04:12:38;96176.59;;;-0.72;97.69
8717;BME280;4395;48.554;8.820;2023-04-05T04:14:43;96188.03;;;-0.80;99.16
8717;BME280;4395;48.554;8.820;2023-04-05T04:17:25;96120.44;;;-1.12;99.92
8717;BME280;4395;48.554;8.820;2023-04-05T04:19:47;96152.06;;;-0.81;99.09
8717;BME280;4395;48.554;8.820;2023-04-05T04:22:09;96187.38;;;-0.59;97.38
8717;BME280;4395;48.554;8.820;2023-04-05T04:24:45;96191.31;;;-0.55;97.51
8717;BME280;4395;48.554;8.820;2023-04-05T04:27:19;96173.84;;;-0.79;97.00
8717;BME280;4395;48.554;8.820;2023-04-05T04:29:42;96183.50;;;-0.71;96.85
8717;BME280;4395;48.554;8.820;2023-04-05T04:32:10;96186.56;;;-0.82;96.42
8717;BME280;4395;48.554;8.820;2023-04-05T04:34:31;96175.81;;;-0.81;96.60
8717;BME280;4395;48.554;8.820;2023-04-05T04:36:43;96183.88;;;-0.74;97.69
8717;BME280;4395;48.554;8.820;2023-04-05T04:39:13;96182.34;;;-0.69;98.35
8717;BME280;4395;48.554;8.820;2023-04-05T04:41:39;96183.41;;;-0.55;100.00
8717;BME280;4395;48.554;8.820;2023-04-05T04:44:01;96170.97;;;-0.69;98.75
8717;BME280;4395;48.554;8.820;2023-04-05T04:46:18;96169.91;;;-0.83;98.88
8717;BME280;4395;48.554;8.820;2023-04-05T04:48:47;96078.75;;;-1.39;98.86
8717;BME280;4395;48.554;8.820;2023-04-05T04:51:05;96166.63;;;-0.85;98.56
8717;BME280;4395;48.554;8.820;2023-04-05T04:53:09;96150.81;;;-1.16;98.51
8717;BME280;4395;48.554;8.820;2023-04-05T04:55:14;96172.47;;;-0.98;99.21
8717;BME280;4395;48.554;8.820;2023-04-05T04:57:20;96184.16;;;-1.23;100.00
8717;BME280;4395;48.554;8.820;2023-04-05T04:59:22;96176.81;;;-1.05;100.00
8717;BME280;4395;48.554;8.820;2023-04-05T05:01:27;96179.03;;;-0.93;99.49
8717;BME280;4395;48.554;8.820;2023-04-05T05:03:33;96179.03;;;-0.93;100.00
8717;BME280;4395;48.554;8.820;2023-04-05T05:05:41;96182.69;;;-0.94;98.48
8717;BME280;4395;48.554;8.820;2023-04-05T05:07:44;96193.34;;;-0.88;98.52
8717;BME280;4395;48.554;8.820;2023-04-05T05:09:47;96199.19;;;-1.01;98.88
8717;BME280;4395;48.554;8.820;2023-04-05T05:11:52;96196.16;;;-0.89;99.32
8717;BME280;4395;48.554;8.820;2023-04-05T05:13:57;96204.38;;;-0.84;97.53
8717;BME280;4395;48.554;8.820;2023-04-05T05:16:01;96199.41;;;-0.79;99.26
8717;BME280;4395;48.554;8.820;2023-04-05T05:18:06;96188.84;;;-0.79;97.45
8717;BME280;4395;48.554;8.820;2023-04-05T05:20:10;96202.75;;;-0.85;96.85
8717;BME280;4395;48.554;8.820;2023-04-05T05:22:18;96201.44;;;-0.89;96.80
8717;BME280;4395;48.554;8.820;2023-04-05T05:24:20;96205.22;;;-0.84;97.03
8717;BME280;4395;48.554;8.820;2023-04-05T05:26:23;96195.59;;;-0.77;97.10
8717;BME280;4395;48.554;8.820;2023-04-05T05:28:26;96196.53;;;-0.70;96.80
8717;BME280;4395;48.554;8.820;2023-04-05T05:30:29;96198.66;;;-0.65;96.53
8717;BME280;4395;48.554;8.820;2023-04-05T05:32:32;96205.06;;;-0.59;96.15
8717;BME280;4395;48.554;8.820;2023-04-05T05:34:36;96207.47;;;-0.50;96.42
8717;BME280;4395;48.554;8.820;2023-04-05T05:36:39;96196.19;;;-0.44;96.67
8717;BME280;4395;48.554;8.820;2023-04-05T05:38:42;96203.59;;;-0.39;97.25
8717;BME280;4395;48.554;8.820;2023-04-05T05:40:44;96188.84;;;-0.34;96.59
8717;BME280;4395;48.554;8.820;2023-04-05T05:42:48;96208.63;;;-0.29;96.90
8717;BME280;4395;48.554;8.820;2023-04-05T05:44:50;96099.06;;;-0.71;96.23
8717;BME280;4395;48.554;8.820;2023-04-05T05:46:53;96197.03;;;-0.06;95.27
8717;BME280;4395;48.554;8.820;2023-04-05T05:48:56;96205.59;;;-0.04;95.13
8717;BME280;4395;48.554;8.820;2023-04-05T05:51:00;96194.84;;;-0.02;94.47
8717;BME280;4395;48.554;8.820;2023-04-05T05:53:03;96201.78;;;-0.01;94.38
8717;BME280;4395;48.554;8.820;2023-04-05T05:55:06;96195.84;;;-0.03;94.61
8717;BME280;4395;48.554;8.820;2023-04-05T05:57:09;96209.03;;;0.05;94.20
8717;BME280;4395;48.554;8.820;2023-04-05T05:59:12;96215.59;;;0.09;93.98
8717;BME280;4395;48.554;8.820;2023-04-05T06:01:15;96196.00;;;0.18;94.48
8717;BME280;4395;48.554;8.820;2023-04-05T06:03:18;96079.16;;;-0.59;93.79
8717;BME280;4395;48.554;8.820;2023-04-05T06:05:22;96199.84;;;0.30;95.04
8717;BME280;4395;48.554;8.820;2023-04-05T06:07:27;96206.06;;;0.38;95.05
8717;BME280;4395;48.554;8.820;2023-04-05T06:09:30;96150.94;;;-0.03;95.48
8717;BME280;4395;48.554;8.820;2023-04-05T06:11:34;96201.13;;;0.35;97.21
8717;BME280;4395;48.554;8.820;2023-04-05T06:13:47;96212.81;;;0.55;95.92
8717;BME280;4395;48.554;8.820;2023-04-05T06:15:50;96203.13;;;0.62;95.73
8717;BME280;4395;48.554;8.820;2023-04-05T06:17:53;96207.16;;;0.73;94.06
8717;BME280;4395;48.554;8.820;2023-04-05T06:19:56;96198.03;;;0.75;93.18
8717;BME280;4395;48.554;8.820;2023-04-05T06:21:59;96202.94;;;0.78;93.51
8717;BME280;4395;48.554;8.820;2023-04-05T06:24:04;96203.88;;;0.71;95.07
8717;BME280;4395;48.554;8.820;2023-04-05T06:26:07;96207.78;;;0.89;93.72
8717;BME280;4395;48.554;8.820;2023-04-05T06:28:09;96204.84;;;0.99;93.33
8717;BME280;4395;48.554;8.820;2023-04-05T06:30:13;96204.09;;;1.05;92.42
8717;BME280;4395;48.554;8.820;2023-04-05T06:32:16;96206.44;;;1.15;91.39
8717;BME280;4395;48.554;8.820;2023-04-05T06:34:19;96208.16;;;1.22;90.22
8717;BME280;4395;48.554;8.820;2023-04-05T06:36:22;96211.69;;;1.29;88.98
8717;BME280;4395;48.554;8.820;2023-04-05T06:38:27;96201.63;;;1.40;88.89
8717;BME280;4395;48.554;8.820;2023-04-05T06:40:32;96213.75;;;1.49;88.94
8717;BME280;4395;48.554;8.820;2023-04-05T06:42:34;96213.00;;;1.55;89.02
8717;BME280;4395;48.554;8.820;2023-04-05T06:44:39;96203.72;;;1.66;88.78
8717;BME280;4395;48.554;8.820;2023-04-05T06:46:42;96205.03;;;1.55;88.80
8717;BME280;4395;48.554;8.820;2023-04-05T06:48:45;96214.56;;;1.71;89.71
8717;BME280;4395;48.554;8.820;2023-04-05T06:50:55;96213.06;;;1.83;89.44
8717;BME280;4395;48.554;8.820;2023-04-05T06:52:58;96209.88;;;1.94;89.12
8717;BME280;4395;48.554;8.820;2023-04-05T06:55:01;96131.63;;;1.49;87.83
8717;BME280;4395;48.554;8.820;2023-04-05T06:57:06;96216.38;;;2.13;87.01
8717;BME280;4395;48.554;8.820;2023-04-05T06:59:09;96220.22;;;2.10;86.57
8717;BME280;4395;48.554;8.820;2023-04-05T07:01:12;96223.50;;;2.12;85.49
8717;BME280;4395;48.554;8.820;2023-04-05T07:03:15;96221.72;;;2.19;85.17
8717;BME280;4395;48.554;8.820;2023-04-05T07:05:18;96219.88;;;1.92;84.60
8717;BME280;4395;48.554;8.820;2023-04-05T07:07:21;96211.69;;;2.15;84.90
8717;BME280;4395;48.554;8.820;2023-04-05T07:09:23;96220.66;;;2.42;83.63
8717;BME280;4395;48.554;8.820;2023-04-05T07:11:29;96209.91;;;2.50;81.67
8717;BME280;4395;48.554;8.820;2023-04-05T07:13:34;96220.13;;;2.53;80.69
8717;BME280;4395;48.554;8.820;2023-04-05T07:15:37;96215.25;;;2.56;77.61
8717;BME280;4395;48.554;8.820;2023-04-05T07:17:40;96213.13;;;2.45;78.81
8717;BME280;4395;48.554;8.820;2023-04-05T07:19:42;96224.75;;;2.44;81.78
8717;BME280;4395;48.554;8.820;2023-04-05T07:21:45;96228.88;;;2.47;83.45
8717;BME280;4395;48.554;8.820;2023-04-05T07:23:48;96223.38;;;2.48;84.00
8717;BME280;4395;48.554;8.820;2023-04-05T07:25:54;96219.13;;;2.54;83.15
8717;BME280;4395;48.554;8.820;2023-04-05T07:27:57;96217.00;;;2.71;82.56
8717;BME280;4395;48.554;8.820;2023-04-05T07:30:01;96220.50;;;2.78;82.73
8717;BME280;4395;48.554;8.820;2023-04-05T07:32:04;96212.59;;;2.84;80.92
8717;BME280;4395;48.554;8.820;2023-04-05T07:34:06;96228.16;;;2.94;78.31
8717;BME280;4395;48.554;8.820;2023-04-05T07:36:09;96224.50;;;3.02;75.24
8717;BME280;4395;48.554;8.820;2023-04-05T07:38:12;96219.19;;;3.02;74.63
8717;BME280;4395;48.554;8.820;2023-04-05T07:40:15;96225.38;;;3.09;74.70
8717;BME280;4395;48.554;8.820;2023-04-05T07:42:18;96225.63;;;3.20;74.43
8717;BME280;4395;48.554;8.820;2023-04-05T07:44:22;96215.19;;;3.19;73.65
8717;BME280;4395;48.554;8.820;2023-04-05T07:46:26;96225.03;;;3.25;73.59
8717;BME280;4395;48.554;8.820;2023-04-05T07:48:30;96219.13;;;3.36;73.09
8717;BME280;4395;48.554;8.820;2023-04-05T07:50:33;96219.97;;;3.43;73.05
8717;BME280;4395;48.554;8.820;2023-04-05T07:52:36;96220.81;;;3.50;71.39
8717;BME280;4395;48.554;8.820;2023-04-05T07:54:39;96232.44;;;3.43;69.79
8717;BME280;4395;48.554;8.820;2023-04-05T07:56:43;96224.06;;;3.46;69.27
8717;BME280;4395;48.554;8.820;2023-04-05T07:58:46;96232.19;;;3.31;70.01
8717;BME280;4395;48.554;8.820;2023-04-05T08:00:50;96205.63;;;3.31;70.10
8717;BME280;4395;48.554;8.820;2023-04-05T08:02:56;96234.69;;;3.46;68.73
8717;BME280;4395;48.554;8.820;2023-04-05T08:05:03;96238.81;;;3.55;69.40
8717;BME280;4395;48.554;8.820;2023-04-05T08:07:06;96236.41;;;3.67;69.40
8717;BME280;4395;48.554;8.820;2023-04-05T08:09:09;96238.28;;;3.86;68.80
8717;BME280;4395;48.554;8.820;2023-04-05T08:11:12;96177.69;;;3.55;67.64
8717;BME280;4395;48.554;8.820;2023-04-05T08:13:15;96243.44;;;4.14;66.50
8717;BME280;4395;48.554;8.820;2023-04-05T08:15:18;96243.03;;;4.24;65.38
8717;BME280;4395;48.554;8.820;2023-04-05T08:17:20;96237.69;;;4.37;64.18
8717;BME280;4395;48.554;8.820;2023-04-05T08:19:25;96237.06;;;4.48;62.48
8717;BME280;4395;48.554;8.820;2023-04-05T08:21:28;96236.25;;;4.54;61.50
8717;BME280;4395;48.554;8.820;2023-04-05T08:23:31;96237.28;;;4.53;60.27
8717;BME280;4395;48.554;8.820;2023-04-05T08:25:34;96226.84;;;4.58;60.33
8717;BME280;4395;48.554;8.820;2023-04-05T08:27:36;96239.50;;;4.69;59.44
8717;BME280;4395;48.554;8.820;2023-04-05T08:29:39;96239.91;;;4.79;59.44
8717;BME280;4395;48.554;8.820;2023-04-05T08:31:42;96241.59;;;4.41;59.51
8717;BME280;4395;48.554;8.820;2023-04-05T08:33:45;96238.28;;;4.78;60.37
8717;BME280;4395;48.554;8.820;2023-04-05T08:35:49;96232.84;;;5.11;57.47
8717;BME280;4395;48.554;8.820;2023-04-05T08:37:52;96241.84;;;5.17;55.89
8717;BME280;4395;48.554;8.820;2023-04-05T08:39:54;96232.44;;;5.21;55.22
8717;BME280;4395;48.554;8.820;2023-04-05T08:42:02;96231.28;;;5.55;54.07
8717;BME280;4395;48.554;8.820;2023-04-05T08:44:08;96225.72;;;5.57;51.78
8717;BME280;4395;48.554;8.820;2023-04-05T08:46:13;96231.34;;;5.80;49.18
8717;BME280;4395;48.554;8.820;2023-04-05T08:48:17;96241.97;;;5.93;50.33
8717;BME280;4395;48.554;8.820;2023-04-05T08:50:20;96236.59;;;6.00;48.46
8717;BME280;4395;48.554;8.820;2023-04-05T08:52:26;96235.44;;;5.82;48.38
8717;BME280;4395;48.554;8.820;2023-04-05T08:54:29;96236.84;;;5.47;49.77
8717;BME280;4395;48.554;8.820;2023-04-05T08:56:33;96239.50;;;5.92;50.13
8717;BME280;4395;48.554;8.820;2023-04-05T08:58:37;96234.38;;;6.22;48.60
8717;BME280;4395;48.554;8.820;2023-04-05T09:00:41;96219.41;;;6.21;47.13
8717;BME280;4395;48.554;8.820;2023-04-05T09:02:46;96229.75;;;6.35;45.54
8717;BME280;4395;48.554;8.820;2023-04-05T09:04:50;96234.63;;;6.45;44.52
8717;BME280;4395;48.554;8.820;2023-04-05T09:06:57;96235.31;;;6.59;42.98
8717;BME280;4395;48.554;8.820;2023-04-05T09:09:05;96233.34;;;6.72;42.67
8717;BME280;4395;48.554;8.820;2023-04-05T09:11:10;96236.91;;;6.85;42.03
8717;BME280;4395;48.554;8.820;2023-04-05T09:13:13;96230.41;;;6.99;40.90
8717;BME280;4395;48.554;8.820;2023-04-05T09:15:16;96238.44;;;7.17;41.57
8717;BME280;4395;48.554;8.820;2023-04-05T09:17:22;96234.28;;;7.21;41.55
8717;BME280;4395;48.554;8.820;2023-04-05T09:19:25;96231.97;;;7.06;41.30
8717;BME280;4395;48.554;8.820;2023-04-05T09:21:28;96226.84;;;7.23;43.80
8717;BME280;4395;48.554;8.820;2023-04-05T09:23:31;96226.94;;;7.17;43.82
8717;BME280;4395;48.554;8.820;2023-04-05T09:25:37;96233.47;;;7.21;44.53
8717;BME280;4395;48.554;8.820;2023-04-05T09:27:53;96232.78;;;7.25;44.25
8717;BME280;4395;48.554;8.820;2023-04-05T09:29:57;96227.56;;;7.49;44.34
8717;BME280;4395;48.554;8.820;2023-04-05T09:32:00;96224.06;;;7.66;44.29
8717;BME280;4395;48.554;8.820;2023-04-05T09:34:04;96228.91;;;7.58;44.03
8717;BME280;4395;48.554;8.820;2023-04-05T09:36:07;96216.75;;;7.73;44.79
8717;BME280;4395;48.554;8.820;2023-04-05T09:38:10;96219.88;;;7.89;43.97
8717;BME280;4395;48.554;8.820;2023-04-05T09:40:13;96218.97;;;7.95;43.69
8717;BME280;4395;48.554;8.820;2023-04-05T09:42:18;96226.47;;;8.16;42.82
8717;BME280;4395;48.554;8.820;2023-04-05T09:44:23;96223.09;;;8.21;42.69
8717;BME280;4395;48.554;8.820;2023-04-05T09:46:31;96233.72;;;8.27;43.11
8717;BME280;4395;48.554;8.820;2023-04-05T09:48:45;96218.28;;;8.41;42.52
8717;BME280;4395;48.554;8.820;2023-04-05T09:50:48;96233.91;;;8.44;41.77
8717;BME280;4395;48.554;8.820;2023-04-05T09:53:04;96159.53;;;8.04;41.04
8717;BME280;4395;48.554;8.820;2023-04-05T09:55:08;96223.88;;;8.51;41.49
8717;BME280;4395;48.554;8.820;2023-04-05T09:57:11;96228.31;;;8.69;40.83
8717;BME280;4395;48.554;8.820;2023-04-05T09:59:15;96228.91;;;8.18;40.83
8717;BME280;4395;48.554;8.820;2023-04-05T10:01:18;96225.91;;;8.26;40.75
8717;BME280;4395;48.554;8.820;2023-04-05T10:03:24;96106.41;;;7.18;42.14
8717;BME280;4395;48.554;8.820;2023-04-05T10:05:28;96224.31;;;7.47;42.23
8717;BME280;4395;48.554;8.820;2023-04-05T10:07:33;96205.09;;;7.20;43.24
8717;BME280;4395;48.554;8.820;2023-04-05T10:09:37;96223.78;;;8.16;42.53
8717;BME280;4395;48.554;8.820;2023-04-05T10:11:41;96216.16;;;7.90;41.94
8717;BME280;4395;48.554;8.820;2023-04-05T10:13:45;96216.59;;;8.28;41.41
8717;BME280;4395;48.554;8.820;2023-04-05T10:15:52;96214.84;;;7.62;40.89
8717;BME280;4395;48.554;8.820;2023-04-05T10:18:02;96208.28;;;8.06;41.41
8717;BME280;4395;48.554;8.820;2023-04-05T10:20:09;96210.50;;;8.51;39.89
8717;BME280;4395;48.554;8.820;2023-04-05T10:22:18;96209.34;;;8.05;40.99
8717;BME280;4395;48.554;8.820;2023-04-05T10:24:33;96211.41;;;8.33;41.62
8717;BME280;4395;48.554;8.820;2023-04-05T10:26:39;96198.94;;;9.09;41.57
8717;BME280;4395;48.554;8.820;2023-04-05T10:28:47;96192.97;;;9.59;39.92
8717;BME280;4395;48.554;8.820;2023-04-05T10:30:58;96157.16;;;9.65;39.63
8717;BME280;4395;48.554;8.820;2023-04-05T10:33:10;96187.41;;;10.06;39.30
8717;BME280;4395;48.554;8.820;2023-04-05T10:35:16;96199.50;;;10.20;39.22
8717;BME280;4395;48.554;8.820;2023-04-05T10:37:28;96174.19;;;10.32;38.40
8717;BME280;4395;48.554;8.820;2023-04-05T10:39:34;96195.56;;;10.56;37.87
8717;BME280;4395;48.554;8.820;2023-04-05T10:41:41;96193.78;;;10.61;37.89
8717;BME280;4395;48.554;8.820;2023-04-05T10:43:48;96198.50;;;9.52;37.65
8717;BME280;4395;48.554;8.820;2023-04-05T10:45:56;96128.97;;;9.22;39.54
8717;BME280;4395;48.554;8.820;2023-04-05T10:48:07;96185.41;;;9.56;38.18
8717;BME280;4395;48.554;8.820;2023-04-05T10:50:21;96197.63;;;9.63;38.58
8717;BME280;4395;48.554;8.820;2023-04-05T10:52:24;96193.41;;;9.96;38.74
8717;BME280;4395;48.554;8.820;2023-04-05T10:54:28;96183.94;;;9.77;38.75
8717;BME280;4395;48.554;8.820;2023-04-05T10:56:33;96177.03;;;10.26;38.41
8717;BME280;4395;48.554;8.820;2023-04-05T10:58:38;96197.81;;;10.81;37.60
8717;BME280;4395;48.554;8.820;2023-04-05T11:00:43;96193.34;;;11.25;37.11
8717;BME280;4395;48.554;8.820;2023-04-05T11:02:52;96190.22;;;11.55;35.73
8717;BME280;4395;48.554;8.820;2023-04-05T11:04:56;96191.38;;;11.64;35.71
8717;BME280;4395;48.554;8.820;2023-04-05T11:07:10;96182.25;;;11.87;35.92
8717;BME280;4395;48.554;8.820;2023-04-05T11:09:15;96184.53;;;9.95;36.36
8717;BME280;4395;48.554;8.820;2023-04-05T11:11:21;96185.03;;;10.21;36.00
8717;BME280;4395;48.554;8.820;2023-04-05T11:13:47;96186.53;;;9.72;37.65
8717;BME280;4395;48.554;8.820;2023-04-05T11:16:07;96183.41;;;10.37;36.79
8717;BME280;4395;48.554;8.820;2023-04-05T11:18:19;96183.84;;;10.45;36.40
8717;BME280;4395;48.554;8.820;2023-04-05T11:20:23;96179.28;;;11.01;37.44
8717;BME280;4395;48.554;8.820;2023-04-05T11:22:27;96177.13;;;11.20;34.88
8717;BME280;4395;48.554;8.820;2023-04-05T11:24:49;96173.72;;;11.73;34.06
8717;BME280;4395;48.554;8.820;2023-04-05T11:26:53;96159.09;;;9.98;35.11
8717;BME280;4395;48.554;8.820;2023-04-05T11:28:57;96154.81;;;10.30;34.50
8717;BME280;4395;48.554;8.820;2023-04-05T11:31:11;96160.72;;;11.21;34.17
8717;BME280;4395;48.554;8.820;2023-04-05T11:36:02;96086.16;;;10.95;33.63